Challenge JP Guerit

Le Jogging Des Venelles - Baileux (12.30 km)

samedi 04 septembre 2021

Le classement original se trouve sur : http://www.challenge-guerit.be/
 
CHALLENGE JP GUERIT
LE JOGGING DES VENELLES - BAILEUX
DISTANCE 12.30 km
samedi 04 septembre 2021
 
Place
finish
dos NOM Equipe Catég. Place
catégorie
Temps Temps/km Vitesse
1 149 MOBIAN FABIEN ROCROI SPORTS NATURE SEN H 1 00:48:50 03:58 15.11
2 130 URBAIN JONATHAN MB COACHING SEN H 2 00:49:40 04:02 14.86
3 147 BRACONNIER MIGUEL MOMINOISE SEN H 3 00:50:23 04:06 14.65
4 123 LUST MAXIME LA THURE SEN H 4 00:50:32 04:07 14.60
5 126 NORDIER LUDOVIC MB COACHING SEN H 5 00:52:34 04:16 14.04
6 127 PELTIER CHRISTOPHE CMA LA MACÉRIENNE V1 1 00:52:56 04:18 13.94
7 124 MAGOTTEAUX CÉDRIC ROYAL BAILEUX SPORT V1 2 00:53:26 04:21 13.81
8 161 LUST ERIC LA THURE V2 1 00:53:36 04:21 13.77
9 110 DAUSSY EMERIC RUNNING TRAIL THIÉRACHE SEN H 6 00:53:42 04:22 13.74
10 120 HENNEQUENNE ROMAIN - SEN H 7 00:56:04 04:33 13.16
11 128 RIVEZ PIERRE LA THURE V3 1 00:56:16 04:34 13.12
12 169 ROCHETTE ARNAUD - SEN H 8 00:56:19 04:35 13.10
13 125 MAUDOUX LIONEL JACO SEN H 9 00:57:23 04:40 12.86
14 164 LEROY LUC LA THURE V2 2 00:58:05 04:43 12.71
15 103 CHATEL DANIEL AC FRONTIÈRES V3 2 00:58:31 04:45 12.61
16 119 GRESSENS FRANÇOIS - SEN H 10 00:58:57 04:48 12.52
17 167 DEHOUCK VIRGINIE ESM A1 1 00:59:05 04:48 12.49
18 140 LECHARLIER JONATHAN ACCO SEN H 11 00:59:19 04:49 12.44
19 138 HAMOIR KAREN ESM A1 2 01:00:12 04:54 12.26
20 131 AMANT BERTRAND LA THURE SEN H 12 01:00:18 04:54 12.24
21 163 DUBOIS MICHAËL LA THURE V1 3 01:00:38 04:56 12.17
22 112 DEVILLE PHILIPPE JTRR V4 1 01:00:55 04:57 12.11
23 144 VAN KLEEF SÉBASTIEN - V1 4 01:01:11 04:58 12.06
24 118 FICHET LAURENT JACO V1 5 01:01:31 05:00 12.00
25 111 DEBAISE PASCAL - V2 3 01:01:46 05:01 11.95
26 175 NICOLAS SÉBASTIEN RSN V1 6 01:02:07 05:03 11.88
27 156 CAWET QUENTIN SOAY DE FORGES V1 7 01:02:09 05:03 11.87
28 105 CLIP JEAN LOUIS RUNNING TRAIL THIÉRACHE SEN H 13 01:02:37 05:05 11.79
29 142 DECLERCQ GUY - V3 3 01:03:15 05:09 11.67
30 143 PETIT ARMANDE LA THURE A3 1 01:03:15 05:09 11.67
31 171 SEINGIER LIONEL - V2 4 01:03:24 05:09 11.64
32 146 DUTERME ADRIEN - SEN H 14 01:03:57 05:12 11.54
33 121 ISTACE XAVIER LA MACERIENNE V2 5 01:04:47 05:16 11.39
34 137 CAWET BÉNÉDICTE - A1 3 01:05:20 05:19 11.30
35 154 CORDEWENER JOËL AC FRONTIERES V1 8 01:05:25 05:19 11.28
36 102 BOMBLED CHRISTOPHE RUN'HEURE V1 9 01:05:54 05:21 11.20
37 114 DUTERME MICHEL - V3 4 01:06:41 05:25 11.07
38 139 BRUNEBARBE JOËL LA THURE V2 6 01:07:24 05:29 10.95
39 160 DUBOIS SÉBASTIEN LA THURE V1 10 01:07:24 05:29 10.95
40 101 AUBERT SERGE - V4 2 01:07:42 05:30 10.90
41 115 DUTERME NICOLAS ART SEN H 15 01:07:46 05:31 10.89
42 152 LEROI PHILIPPE SNCF V2 7 01:08:10 05:33 10.83
43 153 LABILLOY FLORENT AC FRONTIERES V1 11 01:08:24 05:34 10.79
44 155 PARISELLE JACKY AC FRONTIERES V4 3 01:09:30 05:39 10.62
45 168 DUCARME PASCAL JC GERMINALT V2 8 01:09:46 05:40 10.58
46 132 AUBERT MAXIME - SEN H 16 01:10:05 05:42 10.53
47 136 NICOLAS JÉRÔME - SEN H 17 01:10:57 05:46 10.40
48 135 ES CHRISTIAN ESM V3 5 01:11:36 05:49 10.31
49 117 FICHET DOMINIQUE JACO V1 12 01:11:43 05:50 10.29
50 107 COLINET PATRICIA - A4 1 01:13:20 05:58 10.06
51 106 COLINET CEDRIC - V1 13 01:14:12 06:02 9.95
52 109 COLINET PAUL - V4 4 01:14:12 06:02 9.95
53 104 CHATEL MEDGINE - JUF 1 01:14:13 06:02 9.94
54 129 STICKER JOHAN ESM V3 6 01:15:12 06:07 9.81
55 173 LEROY JULIA ACCO-GRAC SEN F 1 01:15:20 06:07 9.80
56 174 LEROY JEAN-PIERRE ACCO V2 9 01:15:22 06:08 9.79
57 145 GOBINET PASCAL CSCV HIRSON V2 10 01:15:48 06:10 9.74
58 133 GOBLET ANNICK ACCO A3 2 01:18:14 06:22 9.43
59 151 GOUTO MANUEL MAROILLES V4 5 01:18:19 06:22 9.42
60 122 LAMERANT CHANTAL OTC A3 3 01:19:47 06:29 9.25
61 165 DUSSART DELPHINE JACO A2 1 01:20:05 06:31 9.22
62 166 LIBERT OLIVIER JACO V1 14 01:20:06 06:31 9.21
63 141 IMBERT MICHEL CAFOUR V4 6 01:21:05 06:36 9.10
64 162 SELOSSE CÉCILE JACO A1 4 01:22:01 06:40 9.00
65 150 STASIAK ANTOINE SNCF V4 7 01:23:33 06:48 8.83
66 172 DAIX CHRISTIANE PHILIPPEVILLE A2 2 01:28:06 07:10 8.38
67 170 ROUSSEAUX SYLVIE JACO A1 5 01:33:15 07:35 7.91
68 159 SPRIMONT ISABELLE - A2 3 01:34:16 07:40 7.83
69 157 ROCHET ALAIN - V2 11 01:34:18 07:40 7.83
                 
Nos dernières videos